createdAt,value
2019-05-13T00:00:45.629Z,103197.18
2019-05-13T00:03:13.463Z,103197.20
2019-05-13T00:05:39.111Z,103203.17
2019-05-13T00:08:04.889Z,103197.52
2019-05-13T00:10:30.699Z,103197.75
2019-05-13T00:12:56.475Z,103198.59
2019-05-13T00:15:24.342Z,103199.17
2019-05-13T00:17:49.955Z,103202.66
2019-05-13T00:20:15.747Z,103198.64
2019-05-13T00:22:44.699Z,103201.90
2019-05-13T00:25:10.112Z,103198.92
2019-05-13T00:27:35.895Z,103198.27
2019-05-13T00:30:04.271Z,103201.45
2019-05-13T00:32:30.168Z,103198.54
2019-05-13T00:34:55.963Z,103200.11
2019-05-13T00:37:21.740Z,103208.80
2019-05-13T00:39:47.532Z,103200.80
2019-05-13T00:42:14.256Z,103205.55
2019-05-13T00:44:40.101Z,103204.44
2019-05-13T00:47:05.905Z,103202.91
2019-05-13T00:49:31.685Z,103202.34
2019-05-13T00:51:57.480Z,103211.53
2019-05-13T00:54:23.728Z,103211.45
2019-05-13T00:56:49.551Z,103208.12
2019-05-13T00:59:15.328Z,103205.83
2019-05-13T01:01:41.132Z,103214.25
2019-05-13T01:04:06.929Z,103211.42
2019-05-13T01:06:34.147Z,103206.64
2019-05-13T01:09:00.120Z,103204.34
2019-05-13T01:11:25.917Z,103204.92
2019-05-13T01:13:53.552Z,103205.84
2019-05-13T01:16:19.397Z,103201.86
2019-05-13T01:18:45.187Z,103204.42
2019-05-13T01:21:13.147Z,103201.94
2019-05-13T01:23:38.671Z,103199.48
2019-05-13T01:26:04.454Z,103200.83
2019-05-13T01:28:30.255Z,103199.19
2019-05-13T01:30:56.040Z,103196.16
2019-05-13T01:33:23.506Z,103196.05
2019-05-13T01:35:49.523Z,103203.20
2019-05-13T01:38:15.316Z,103204.38
2019-05-13T01:40:43.739Z,103207.55
2019-05-13T01:43:08.831Z,103212.41
2019-05-13T01:45:34.586Z,103206.78
2019-05-13T01:48:00.383Z,103215.88
2019-05-13T01:50:26.160Z,103208.88
2019-05-13T01:52:53.317Z,103203.61
2019-05-13T01:55:19.154Z,103208.42
2019-05-13T01:57:44.956Z,103209.95
2019-05-13T02:00:13.770Z,103218.72
2019-05-13T02:02:38.732Z,103222.45
2019-05-13T02:05:04.833Z,103229.80
2019-05-13T02:07:30.656Z,103227.70
2019-05-13T02:09:57.041Z,103229.15
2019-05-13T02:12:24.055Z,103230.76
2019-05-13T02:14:49.925Z,103228.00
2019-05-13T02:17:15.709Z,103230.37
2019-05-13T02:19:44.067Z,103227.53
2019-05-13T02:22:09.215Z,103234.60
2019-05-13T02:24:35.007Z,103238.05
2019-05-13T02:27:03.459Z,103230.40
2019-05-13T02:29:28.996Z,103239.38
2019-05-13T02:31:56.315Z,103238.81
2019-05-13T02:34:23.173Z,103239.11
2019-05-13T02:36:52.510Z,103235.07
2019-05-13T02:39:16.886Z,103243.20
2019-05-13T02:41:43.324Z,103238.81
2019-05-13T02:44:12.005Z,103241.30
2019-05-13T02:46:37.182Z,103242.53
2019-05-13T02:49:03.419Z,103247.80
2019-05-13T02:51:29.372Z,103249.52
2019-05-13T02:53:55.253Z,103245.80
2019-05-13T02:56:22.682Z,103250.97
2019-05-13T02:58:48.642Z,103247.80
2019-05-13T03:01:14.445Z,103253.83
2019-05-13T03:03:40.346Z,103253.05
2019-05-13T03:06:06.184Z,103252.48
2019-05-13T03:08:43.750Z,103246.26
2019-05-13T03:11:02.671Z,103243.40
2019-05-13T03:13:27.350Z,103243.80
2019-05-13T03:15:55.046Z,103242.46
2019-05-13T03:18:22.523Z,103246.37
2019-05-13T03:20:48.544Z,103252.56
2019-05-13T03:23:14.325Z,103253.52
2019-05-13T03:25:42.963Z,103259.47
2019-05-13T03:28:07.811Z,103254.86
2019-05-13T03:30:35.630Z,103259.85
2019-05-13T03:33:09.668Z,103262.98
2019-05-13T03:35:29.042Z,103269.86
2019-05-13T03:37:54.786Z,103263.95
2019-05-13T03:40:23.131Z,103267.39
2019-05-13T03:42:53.024Z,103267.77
2019-05-13T03:45:22.076Z,103266.44
2019-05-13T03:47:48.871Z,103274.17
2019-05-13T03:50:14.650Z,103273.89
2019-05-13T03:52:43.112Z,103271.67
2019-05-13T03:55:08.134Z,103270.27
2019-05-13T03:57:34.114Z,103272.64
2019-05-13T04:00:03.369Z,103276.09
2019-05-13T04:02:27.609Z,103280.56
2019-05-13T04:04:53.743Z,103278.93
2019-05-13T04:07:19.500Z,103280.77
2019-05-13T04:09:46.010Z,103286.96
2019-05-13T04:12:13.522Z,103287.92
2019-05-13T04:14:42.194Z,103289.16
2019-05-13T04:17:07.297Z,103290.69
2019-05-13T04:19:33.869Z,103287.91
2019-05-13T04:22:02.346Z,103282.55
2019-05-13T04:24:27.834Z,103282.45
2019-05-13T04:26:53.682Z,103286.47
2019-05-13T04:29:19.522Z,103284.06
2019-05-13T04:31:45.316Z,103283.84
2019-05-13T04:34:12.323Z,103286.52
2019-05-13T04:36:38.486Z,103288.81
2019-05-13T04:39:05.082Z,103284.26
2019-05-13T04:41:33.269Z,103289.34
2019-05-13T04:43:58.568Z,103283.56
2019-05-13T04:46:24.350Z,103295.88
2019-05-13T04:48:53.026Z,103293.27
2019-05-13T04:51:17.949Z,103299.09
2019-05-13T04:53:43.746Z,103297.17
2019-05-13T04:56:09.529Z,103299.27
2019-05-13T04:58:37.226Z,103296.72
2019-05-13T05:01:40.336Z,103293.92
2019-05-13T05:04:22.600Z,103301.07
2019-05-13T05:06:46.410Z,103299.41
2019-05-13T05:09:27.868Z,103302.33
2019-05-13T05:12:23.111Z,103302.97
2019-05-13T05:15:13.794Z,103309.80
2019-05-13T05:18:02.858Z,103310.94
2019-05-13T05:20:46.461Z,103314.69
2019-05-13T05:23:21.734Z,103308.53
2019-05-13T05:26:02.912Z,103307.19
2019-05-13T05:28:33.015Z,103310.64
2019-05-13T05:31:11.608Z,103314.66
2019-05-13T05:34:07.746Z,103323.14
2019-05-13T05:36:48.697Z,103317.27
2019-05-13T05:39:22.721Z,103311.03
2019-05-13T05:41:51.433Z,103316.03
2019-05-13T05:44:21.437Z,103319.06
2019-05-13T05:46:47.659Z,103314.27
2019-05-13T05:49:15.358Z,103308.81
2019-05-13T05:51:41.943Z,103313.98
2019-05-13T05:54:11.997Z,103316.80
2019-05-13T05:56:37.741Z,103318.68
2019-05-13T05:59:03.640Z,103323.67
2019-05-13T06:01:29.516Z,103318.02
2019-05-13T06:03:56.313Z,103318.69
2019-05-13T06:06:22.910Z,103319.87
2019-05-13T06:08:48.702Z,103326.59
2019-05-13T06:11:14.591Z,103324.13
2019-05-13T06:13:42.066Z,103329.78
2019-05-13T06:16:07.978Z,103333.09
2019-05-13T06:18:33.758Z,103334.56
2019-05-13T06:21:01.646Z,103331.20
2019-05-13T06:23:27.252Z,103324.27
2019-05-13T06:25:53.054Z,103327.33
2019-05-13T06:28:18.835Z,103330.00
2019-05-13T06:30:44.716Z,103332.12
2019-05-13T06:33:12.023Z,103338.50
2019-05-13T06:35:39.994Z,103345.00
2019-05-13T06:38:05.757Z,103345.00
2019-05-13T06:40:31.930Z,103345.78
2019-05-13T06:42:57.753Z,103350.67
2019-05-13T06:45:23.552Z,103348.72
2019-05-13T06:47:51.950Z,103349.47
2019-05-13T06:50:17.058Z,103349.71
2019-05-13T06:52:42.870Z,103346.68
2019-05-13T06:55:11.390Z,103348.05
2019-05-13T06:57:36.442Z,103344.37
2019-05-13T07:00:04.345Z,103344.37
2019-05-13T07:02:32.082Z,103335.41
2019-05-13T07:04:57.850Z,103343.84
2019-05-13T07:07:23.630Z,103333.75
2019-05-13T07:09:51.663Z,103342.09
2019-05-13T07:12:17.270Z,103347.66
2019-05-13T07:14:43.117Z,103347.66
2019-05-13T07:17:08.918Z,103351.56
2019-05-13T07:19:34.715Z,103353.65
2019-05-13T07:22:02.810Z,103362.08
2019-05-13T07:24:28.206Z,103355.52
2019-05-13T07:26:54.097Z,103352.95
2019-05-13T07:29:20.481Z,103352.95
2019-05-13T07:31:47.152Z,103364.66
2019-05-13T07:34:12.951Z,103357.31
2019-05-13T07:36:39.193Z,103359.83
2019-05-13T07:39:06.978Z,103357.24
2019-05-13T07:41:39.050Z,103351.08
2019-05-13T07:44:02.535Z,103351.16
2019-05-13T07:46:28.181Z,103354.47
2019-05-13T07:48:53.973Z,103358.29
2019-05-13T07:51:22.007Z,103356.50
2019-05-13T07:53:47.461Z,103355.43
2019-05-13T07:56:13.260Z,103353.48
2019-05-13T07:58:41.653Z,103352.80
2019-05-13T08:01:06.772Z,103363.66
2019-05-13T08:03:32.562Z,103365.22
2019-05-13T08:05:58.669Z,103371.70
2019-05-13T08:08:24.470Z,103366.58
2019-05-13T08:10:51.958Z,103371.07
2019-05-13T08:13:17.858Z,103360.44
2019-05-13T08:15:43.644Z,103359.05
2019-05-13T08:18:11.492Z,103363.80
2019-05-13T08:20:37.221Z,103369.16
2019-05-13T08:23:03.016Z,103360.95
2019-05-13T08:25:28.907Z,103357.34
2019-05-13T08:27:54.704Z,103358.37
2019-05-13T08:30:22.746Z,103361.27
2019-05-13T08:32:48.205Z,103365.18
2019-05-13T08:35:13.972Z,103358.95
2019-05-13T08:37:41.369Z,103368.47
2019-05-13T08:40:07.559Z,103358.50
2019-05-13T08:42:33.358Z,103359.22
2019-05-13T08:45:01.923Z,103360.14
2019-05-13T08:47:26.934Z,103372.39
2019-05-13T08:49:52.723Z,103365.48
2019-05-13T08:52:18.519Z,103367.13
2019-05-13T08:54:44.309Z,103371.24
2019-05-13T08:57:11.843Z,103371.87
2019-05-13T08:59:37.795Z,103369.55
2019-05-13T09:02:03.679Z,103360.08
2019-05-13T09:04:31.558Z,103368.59
2019-05-13T09:06:57.300Z,103367.80
2019-05-13T09:09:23.086Z,103371.61
2019-05-13T09:11:51.413Z,103367.27
2019-05-13T09:14:16.574Z,103364.50
2019-05-13T09:16:42.652Z,103365.30
2019-05-13T09:19:08.454Z,103364.33
2019-05-13T09:21:34.246Z,103356.50
2019-05-13T09:24:02.127Z,103367.80
2019-05-13T09:26:27.720Z,103366.20
2019-05-13T09:28:53.520Z,103364.80
2019-05-13T09:31:22.120Z,103359.02
2019-05-13T09:33:47.800Z,103363.13
2019-05-13T09:36:13.845Z,103359.50
2019-05-13T09:38:41.884Z,103358.88
2019-05-13T09:41:07.523Z,103361.58
2019-05-13T09:43:33.359Z,103354.97
2019-05-13T09:46:01.712Z,103357.75
2019-05-13T09:48:27.732Z,103358.22
2019-05-13T09:50:53.529Z,103352.75
2019-05-13T09:53:21.946Z,103349.73
2019-05-13T09:55:47.068Z,103347.69
2019-05-13T09:58:12.856Z,103348.25
2019-05-13T10:00:38.652Z,103338.03
2019-05-13T10:03:04.450Z,103339.33
2019-05-13T10:05:31.661Z,103349.86
2019-05-13T10:07:57.552Z,103353.67
2019-05-13T10:10:23.347Z,103354.04
2019-05-13T10:13:07.278Z,103346.98
2019-05-13T10:15:16.926Z,103344.83
2019-05-13T10:17:43.332Z,103345.14
2019-05-13T10:20:12.084Z,103351.11
2019-05-13T10:22:38.540Z,103349.58
2019-05-13T10:25:05.550Z,103347.31
2019-05-13T10:27:32.419Z,103349.05
2019-05-13T10:29:58.529Z,103344.14
2019-05-13T10:32:24.324Z,103349.03
2019-05-13T10:34:51.996Z,103347.16
2019-05-13T10:37:18.031Z,103348.73
2019-05-13T10:39:43.811Z,103344.48
2019-05-13T10:42:12.038Z,103344.09
2019-05-13T10:44:37.296Z,103343.45
2019-05-13T10:47:03.194Z,103344.47
2019-05-13T10:49:29.203Z,103344.33
2019-05-13T10:51:55.000Z,103343.04
2019-05-13T10:54:21.769Z,103347.16
2019-05-13T10:56:47.692Z,103342.09
2019-05-13T10:59:13.487Z,103346.16
2019-05-13T11:01:41.807Z,103343.97
2019-05-13T11:04:06.980Z,103342.42
2019-05-13T11:06:32.791Z,103340.89
2019-05-13T11:08:58.878Z,103332.88
2019-05-13T11:11:24.689Z,103343.61
2019-05-13T11:13:58.723Z,103342.24
2019-05-13T11:16:18.848Z,103328.47
2019-05-13T11:18:44.645Z,103330.38
2019-05-13T11:21:13.063Z,103329.48
2019-05-13T11:23:38.122Z,103334.41
2019-05-13T11:26:03.923Z,103323.62
2019-05-13T11:28:31.701Z,103324.25
2019-05-13T11:30:59.775Z,103321.53
2019-05-13T11:33:25.118Z,103325.39
2019-05-13T11:35:52.323Z,103314.68
2019-05-13T11:38:18.321Z,103313.19
2019-05-13T11:40:44.118Z,103317.23
2019-05-13T11:43:12.262Z,103310.13
2019-05-13T11:45:37.613Z,103312.34
2019-05-13T11:48:03.503Z,103309.03
2019-05-13T11:50:29.594Z,103314.47
2019-05-13T11:52:55.391Z,103310.25
2019-05-13T11:55:23.047Z,103310.65
2019-05-13T11:57:48.865Z,103305.05
2019-05-13T12:00:21.059Z,103318.65
2019-05-13T12:02:53.890Z,103307.93
2019-05-13T12:05:14.663Z,103305.13
2019-05-13T12:07:42.068Z,103310.64
2019-05-13T12:10:08.345Z,103299.72
2019-05-13T12:12:34.694Z,103299.72
2019-05-13T12:15:27.138Z,103304.59
2019-05-13T12:17:29.419Z,103301.87
2019-05-13T12:19:55.217Z,103296.42
2019-05-13T12:22:22.905Z,103287.77
2019-05-13T12:24:48.696Z,103285.44
2019-05-13T12:27:14.504Z,103280.29
2019-05-13T12:29:43.099Z,103274.83
2019-05-13T12:32:07.974Z,103275.48
2019-05-13T12:34:40.524Z,103271.68
2019-05-13T12:37:03.250Z,103266.69
2019-05-13T12:39:31.461Z,103267.73
2019-05-13T12:41:56.873Z,103273.78
2019-05-13T12:44:23.059Z,103274.52
2019-05-13T12:46:50.551Z,103261.54
2019-05-13T12:49:16.874Z,103271.81
2019-05-13T12:51:43.955Z,103258.62
2019-05-13T12:54:13.667Z,103265.41
2019-05-13T12:56:37.675Z,103258.84
2019-05-13T12:59:03.473Z,103260.11
2019-05-13T13:01:29.258Z,103255.69
2019-05-13T13:03:55.070Z,103264.62
2019-05-13T13:06:30.466Z,103254.52
2019-05-13T13:08:50.585Z,103246.87
2019-05-13T13:11:16.611Z,103247.22
2019-05-13T13:13:58.232Z,103246.14
2019-05-13T13:16:12.616Z,103242.23
2019-05-13T13:18:37.834Z,103238.14
2019-05-13T13:21:07.446Z,103237.53
2019-05-13T13:23:34.120Z,103233.18
2019-05-13T13:26:03.057Z,103229.30
2019-05-13T13:28:27.275Z,103228.95
2019-05-13T13:30:53.467Z,103228.98
2019-05-13T13:33:19.256Z,103228.12
2019-05-13T13:35:54.830Z,103221.40
2019-05-13T13:38:12.779Z,103227.38
2019-05-13T13:40:38.633Z,103218.52
2019-05-13T13:43:05.526Z,103218.02
2019-05-13T13:45:36.767Z,103215.80
2019-05-13T13:48:03.914Z,103219.95
2019-05-13T13:50:26.889Z,103220.28
2019-05-13T13:52:52.978Z,103222.83
2019-05-13T13:55:18.877Z,103216.11
2019-05-13T13:57:45.274Z,103221.84
2019-05-13T14:00:30.842Z,103214.03
2019-05-13T14:02:39.154Z,103221.88
2019-05-13T14:05:05.880Z,103213.79
2019-05-13T14:07:37.838Z,103216.48
2019-05-13T14:10:04.204Z,103213.72
2019-05-13T14:12:27.294Z,103214.44
2019-05-13T14:14:53.077Z,103211.32
2019-05-13T14:17:18.876Z,103202.13
2019-05-13T14:19:44.664Z,103209.95
2019-05-13T14:22:12.610Z,103204.78
2019-05-13T14:24:38.155Z,103205.33
2019-05-13T14:27:04.171Z,103205.36
2019-05-13T14:29:38.569Z,103199.25
2019-05-13T14:31:57.643Z,103196.06
2019-05-13T14:34:23.434Z,103190.78
2019-05-13T14:36:51.631Z,103196.41
2019-05-13T14:39:17.326Z,103193.02
2019-05-13T14:41:43.132Z,103187.40
2019-05-13T14:44:09.009Z,103192.52
2019-05-13T14:46:46.795Z,103192.95
2019-05-13T14:49:02.696Z,103188.51
2019-05-13T14:51:28.492Z,103184.08
2019-05-13T14:53:54.288Z,103184.75
2019-05-13T14:56:22.145Z,103177.55
2019-05-13T14:58:47.780Z,103183.96
2019-05-13T15:01:19.050Z,103188.53
2019-05-13T15:03:41.678Z,103185.70
2019-05-13T15:06:07.570Z,103188.27
2019-05-13T15:08:33.367Z,103192.34
2019-05-13T15:11:01.706Z,103179.80
2019-05-13T15:13:26.859Z,103183.53
2019-05-13T15:15:52.640Z,103183.50
2019-05-13T15:18:18.477Z,103181.10
2019-05-13T15:20:44.252Z,103181.63
2019-05-13T15:23:11.941Z,103183.56
2019-05-13T15:25:37.922Z,103182.99
2019-05-13T15:28:03.734Z,103173.45
2019-05-13T15:30:31.578Z,103176.50
2019-05-13T15:32:57.221Z,103181.78
2019-05-13T15:35:23.005Z,103175.70
2019-05-13T15:37:48.811Z,103180.52
2019-05-13T15:40:14.598Z,103180.89
2019-05-13T15:42:40.391Z,103176.64
2019-05-13T15:45:06.390Z,103176.80
2019-05-13T15:47:32.190Z,103172.98
2019-05-13T15:49:58.286Z,103182.49
2019-05-13T15:52:24.119Z,103175.67
2019-05-13T15:54:52.013Z,103185.63
2019-05-13T15:57:17.621Z,103180.41
2019-05-13T15:59:43.403Z,103177.45
2019-05-13T16:02:11.798Z,103181.28
2019-05-13T16:04:49.035Z,103182.98
2019-05-13T16:07:04.973Z,103178.52
2019-05-13T16:09:31.407Z,103178.18
2019-05-13T16:11:57.356Z,103183.88
2019-05-13T16:14:23.159Z,103185.27
2019-05-13T16:16:48.955Z,103182.61
2019-05-13T16:19:14.762Z,103184.84
2019-05-13T16:21:41.645Z,103182.30
2019-05-13T16:24:07.856Z,103174.73
2019-05-13T16:26:33.748Z,103180.98
2019-05-13T16:29:02.169Z,103172.14
2019-05-13T16:31:27.338Z,103175.16
2019-05-13T16:33:53.151Z,103176.41
2019-05-13T16:36:21.961Z,103173.95
2019-05-13T16:38:46.632Z,103173.35
2019-05-13T16:41:12.796Z,103169.53
2019-05-13T16:43:38.624Z,103165.45
2019-05-13T16:46:07.141Z,103160.27
2019-05-13T16:48:32.503Z,103164.81
2019-05-13T16:50:58.298Z,103168.11
2019-05-13T16:53:25.960Z,103166.27
2019-05-13T16:55:51.795Z,103175.71
2019-05-13T16:58:17.628Z,103175.13
2019-05-13T17:00:44.517Z,103175.13
2019-05-13T17:03:11.470Z,103178.96
2019-05-13T17:05:37.631Z,103183.08
2019-05-13T17:08:03.419Z,103177.77
2019-05-13T17:10:31.397Z,103168.95
2019-05-13T17:12:56.923Z,103167.09
2019-05-13T17:15:22.823Z,103169.05
2019-05-13T17:17:48.605Z,103172.86
2019-05-13T17:20:14.914Z,103174.19
2019-05-13T17:22:42.400Z,103174.84
2019-05-13T17:25:08.313Z,103168.61
2019-05-13T17:27:34.104Z,103176.66
2019-05-13T17:30:02.134Z,103179.92
2019-05-13T17:32:27.598Z,103180.62
2019-05-13T17:34:53.399Z,103173.20
2019-05-13T17:37:19.197Z,103170.08
2019-05-13T17:39:44.982Z,103171.59
2019-05-13T17:42:12.157Z,103169.67
2019-05-13T17:44:38.214Z,103167.96
2019-05-13T17:47:03.989Z,103171.31
2019-05-13T17:49:31.792Z,103173.86
2019-05-13T17:51:57.478Z,103178.34
2019-05-13T17:54:23.284Z,103171.07
2019-05-13T17:56:49.080Z,103171.07
2019-05-13T17:59:16.288Z,103175.05
2019-05-13T18:01:42.158Z,103167.78
2019-05-13T18:04:08.142Z,103174.80
2019-05-13T18:06:33.959Z,103166.28
2019-05-13T18:09:01.177Z,103166.13
2019-05-13T18:11:27.141Z,103172.79
2019-05-13T18:13:52.929Z,103162.87
2019-05-13T18:16:18.730Z,103169.73
2019-05-13T18:18:47.623Z,103171.83
2019-05-13T18:21:12.220Z,103168.06
2019-05-13T18:23:38.028Z,103166.36
2019-05-13T18:26:03.813Z,103169.61
2019-05-13T18:28:31.428Z,103168.90
2019-05-13T18:30:57.311Z,103170.27
2019-05-13T18:33:23.104Z,103178.30
2019-05-13T18:35:48.893Z,103178.53
2019-05-13T18:38:14.698Z,103181.33
2019-05-13T18:40:42.011Z,103181.61
2019-05-13T18:43:07.892Z,103182.41
2019-05-13T18:45:33.674Z,103187.03
2019-05-13T18:48:01.590Z,103188.74
2019-05-13T18:50:27.768Z,103188.97
2019-05-13T18:52:53.571Z,103193.39
2019-05-13T18:55:19.358Z,103192.03
2019-05-13T18:57:45.469Z,103199.02
2019-05-13T19:00:11.547Z,103197.87
2019-05-13T19:02:37.364Z,103204.27
2019-05-13T19:05:04.777Z,103202.35
2019-05-13T19:07:31.554Z,103198.91
2019-05-13T19:09:57.580Z,103207.69
2019-05-13T19:12:25.692Z,103203.70
2019-05-13T19:14:51.635Z,103205.08
2019-05-13T19:17:17.559Z,103211.45
2019-05-13T19:19:43.753Z,103216.97
2019-05-13T19:22:09.552Z,103219.94
2019-05-13T19:24:35.367Z,103216.78
2019-05-13T19:27:01.826Z,103219.68
2019-05-13T19:29:27.758Z,103223.64
2019-05-13T19:31:53.537Z,103226.08
2019-05-13T19:34:21.418Z,103226.34
2019-05-13T19:36:47.062Z,103235.25
2019-05-13T19:39:12.861Z,103235.25
2019-05-13T19:41:38.643Z,103236.61
2019-05-13T19:44:04.435Z,103244.42
2019-05-13T19:46:31.411Z,103242.89
2019-05-13T19:48:57.330Z,103243.16
2019-05-13T19:51:23.127Z,103244.91
2019-05-13T19:53:48.910Z,103245.67
2019-05-13T19:56:14.708Z,103245.56
2019-05-13T19:58:40.491Z,103250.84
2019-05-13T20:01:06.285Z,103252.56
2019-05-13T20:03:32.090Z,103242.45
2019-05-13T20:05:57.890Z,103244.95
2019-05-13T20:08:23.676Z,103244.45
2019-05-13T20:10:51.368Z,103242.88
2019-05-13T20:13:17.173Z,103237.66
2019-05-13T20:15:42.970Z,103237.66
2019-05-13T20:18:08.764Z,103239.25
2019-05-13T20:20:34.559Z,103244.90
2019-05-13T20:23:01.370Z,103245.31
2019-05-13T20:25:27.367Z,103249.26
2019-05-13T20:27:53.146Z,103249.26
2019-05-13T20:30:19.034Z,103252.11
2019-05-13T20:32:44.839Z,103245.11
2019-05-13T20:35:11.448Z,103248.44
2019-05-13T20:37:37.431Z,103252.14
2019-05-13T20:40:03.817Z,103243.57
2019-05-13T20:42:29.965Z,103250.08
2019-05-13T20:44:55.754Z,103254.34
2019-05-13T20:47:21.559Z,103245.78
2019-05-13T20:49:58.175Z,103246.87
2019-05-13T20:52:16.804Z,103243.97
2019-05-13T20:54:43.094Z,103235.26
2019-05-13T20:57:09.667Z,103243.34
2019-05-13T20:59:36.469Z,103249.84
2019-05-13T21:02:03.799Z,103249.71
2019-05-13T21:04:32.031Z,103250.69
2019-05-13T21:06:58.334Z,103250.69
2019-05-13T21:09:24.450Z,103252.54
2019-05-13T21:11:51.495Z,103257.31
2019-05-13T21:14:17.545Z,103248.60
2019-05-13T21:16:44.346Z,103244.33
2019-05-13T21:19:12.370Z,103244.56
2019-05-13T21:21:38.378Z,103252.27
2019-05-13T21:24:04.178Z,103252.63
2019-05-13T21:26:31.503Z,103247.84
2019-05-13T21:28:57.397Z,103244.68
2019-05-13T21:31:23.304Z,103250.75
2019-05-13T21:33:51.391Z,103248.33
2019-05-13T21:36:17.137Z,103247.21
2019-05-13T21:38:43.157Z,103246.09
2019-05-13T21:41:11.632Z,103248.03
2019-05-13T21:43:37.586Z,103253.68
2019-05-13T21:46:03.403Z,103250.33
2019-05-13T21:48:29.193Z,103243.61
2019-05-13T21:50:54.981Z,103239.83
2019-05-13T21:53:24.192Z,103243.34
2019-05-13T21:55:48.735Z,103240.27
2019-05-13T21:58:14.513Z,103238.55
2019-05-13T22:00:44.741Z,103251.00
2019-05-13T22:03:11.606Z,103251.45
2019-05-13T22:05:37.458Z,103249.00
2019-05-13T22:08:03.254Z,103250.53
2019-05-13T22:10:30.979Z,103248.80
2019-05-13T22:12:56.740Z,103245.83
2019-05-13T22:15:22.539Z,103242.05
2019-05-13T22:17:48.320Z,103244.02
2019-05-13T22:20:14.118Z,103243.66
2019-05-13T22:22:41.563Z,103248.31
2019-05-13T22:25:07.582Z,103251.85
2019-05-13T22:27:33.372Z,103251.45
2019-05-13T22:30:01.169Z,103247.80
2019-05-13T22:32:26.852Z,103237.27
2019-05-13T22:34:52.650Z,103239.05
2019-05-13T22:37:18.437Z,103241.08
2019-05-13T22:39:44.242Z,103233.96
2019-05-13T22:42:12.234Z,103231.02
2019-05-13T22:44:37.721Z,103231.58
2019-05-13T22:47:03.504Z,103228.02
2019-05-13T22:49:31.202Z,103224.87
2019-05-13T22:51:57.001Z,103228.98
2019-05-13T22:54:22.798Z,103234.11
2019-05-13T22:56:48.585Z,103232.39
2019-05-13T22:59:14.379Z,103235.03
2019-05-13T23:01:41.818Z,103236.03
2019-05-13T23:04:07.851Z,103234.91
2019-05-13T23:06:33.669Z,103238.09
2019-05-13T23:09:01.590Z,103235.49
2019-05-13T23:11:27.154Z,103243.27
2019-05-13T23:14:06.439Z,103238.44
2019-05-13T23:16:22.222Z,103231.69
2019-05-13T23:18:48.126Z,103235.05
2019-05-13T23:21:13.932Z,103240.53
2019-05-13T23:23:39.715Z,103239.91
2019-05-13T23:26:05.525Z,103242.25
2019-05-13T23:28:32.321Z,103238.61
2019-05-13T23:30:58.209Z,103239.52
2019-05-13T23:33:24.001Z,103240.11
2019-05-13T23:35:49.798Z,103234.17
2019-05-13T23:38:15.580Z,103242.05
2019-05-13T23:40:42.128Z,103235.84
2019-05-13T23:43:08.051Z,103240.33
2019-05-13T23:45:33.883Z,103233.03
2019-05-13T23:48:01.653Z,103240.91
2019-05-13T23:50:27.432Z,103242.17
2019-05-13T23:52:53.273Z,103242.63
2019-05-13T23:55:19.045Z,103249.02
2019-05-13T23:57:44.850Z,103250.68
